AFL1998 URWA-URSS
Flight info
| Callsign | AFL1998 |
|---|---|
| Flight time | N/A |
| Altitude | 30000 |
| Route | ZG5B ZG G242 BABUR DCT AZABI DCT RALAN/K0850F360 DCT ITAKA DCT AMKOL DCT GOTIK DCT MEMZA DCT BINOL BINOL1K |
| Aircraft | A320/M-SDE3FGHIRWY/LB1 |
Departure
| Time | 2026-04-30 11:46 |
|---|---|
| Airport | Astrakhan Narimanovo Boris M. Kustodiev International Airport (URWA) |
Arrival
| Time | N/A |
|---|---|
| Airport | Sochi International Airport (URSS) |
| Time | Latitude | Longitude | Altitude | Speed | Heading |
|---|---|---|---|---|---|
| 2026-04-30 10:56 | 46.28653 | 48.00108 | -74 ft | 0 kts | 50° |
| 2026-04-30 11:33 | 46.28647 | 48.00097 | -74 ft | 2 kts | 50° |
| 2026-04-30 11:33 | 46.28638 | 48.00082 | -68 ft | 2 kts | 50° |
| 2026-04-30 11:33 | 46.28630 | 48.00074 | -70 ft | 1 kts | 50° |
| 2026-04-30 11:33 | 46.28622 | 48.00073 | -67 ft | 1 kts | 50° |
| 2026-04-30 11:34 | 46.28614 | 48.00072 | -73 ft | 1 kts | 50° |
| 2026-04-30 11:34 | 46.28606 | 48.00071 | -67 ft | 1 kts | 50° |
| 2026-04-30 11:34 | 46.28598 | 48.00070 | -66 ft | 1 kts | 50° |
| 2026-04-30 11:34 | 46.28590 | 48.00069 | -74 ft | 1 kts | 50° |
| 2026-04-30 11:35 | 46.28590 | 48.00068 | -74 ft | 0 kts | 50° |
| 2026-04-30 11:35 | 46.28589 | 48.00066 | -74 ft | 0 kts | 50° |
| 2026-04-30 11:35 | 46.28587 | 48.00063 | -74 ft | 0 kts | 50° |
| 2026-04-30 11:35 | 46.28585 | 48.00060 | -73 ft | 1 kts | 50° |
| 2026-04-30 11:36 | 46.28582 | 48.00056 | -73 ft | 1 kts | 50° |
| 2026-04-30 11:36 | 46.28580 | 48.00052 | -68 ft | 1 kts | 50° |
| 2026-04-30 11:36 | 46.28577 | 48.00049 | -69 ft | 1 kts | 50° |
| 2026-04-30 11:36 | 46.28574 | 48.00044 | -70 ft | 1 kts | 50° |
| 2026-04-30 11:37 | 46.28623 | 47.99702 | -74 ft | 0 kts | 98° |
| 2026-04-30 11:38 | 46.28621 | 47.99727 | -66 ft | 5 kts | 95° |
| 2026-04-30 11:38 | 46.28623 | 47.99766 | -67 ft | 3 kts | 79° |
| 2026-04-30 11:39 | 46.28626 | 47.99788 | -69 ft | 2 kts | 78° |
| 2026-04-30 11:39 | 46.28627 | 47.99796 | -69 ft | 0 kts | 78° |
| 2026-04-30 11:39 | 46.28629 | 47.99844 | -72 ft | 13 kts | 92° |
| 2026-04-30 11:40 | 46.28617 | 47.99992 | -71 ft | 13 kts | 98° |
| 2026-04-30 11:40 | 46.28610 | 48.00110 | -68 ft | 11 kts | 88° |
| 2026-04-30 11:40 | 46.28608 | 48.00210 | -70 ft | 9 kts | 96° |
| 2026-04-30 11:40 | 46.28602 | 48.00291 | -72 ft | 7 kts | 96° |
| 2026-04-30 11:41 | 46.28592 | 48.00393 | -72 ft | 15 kts | 98° |
| 2026-04-30 11:41 | 46.28577 | 48.00568 | -74 ft | 17 kts | 98° |
| 2026-04-30 11:41 | 46.28558 | 48.00728 | -74 ft | 15 kts | 101° |
| 2026-04-30 11:41 | 46.28540 | 48.00866 | -74 ft | 13 kts | 101° |
| 2026-04-30 11:42 | 46.28525 | 48.00984 | -72 ft | 12 kts | 101° |
| 2026-04-30 11:42 | 46.28500 | 48.01170 | -74 ft | 27 kts | 101° |
| 2026-04-30 11:42 | 46.28460 | 48.01475 | -74 ft | 32 kts | 101° |
| 2026-04-30 11:42 | 46.28432 | 48.01792 | -74 ft | 32 kts | 97° |
| 2026-04-30 11:43 | 46.28406 | 48.02100 | -71 ft | 29 kts | 97° |
| 2026-04-30 11:43 | 46.28381 | 48.02393 | -70 ft | 29 kts | 96° |
| 2026-04-30 11:43 | 46.28357 | 48.02688 | -74 ft | 30 kts | 97° |
| 2026-04-30 11:43 | 46.28336 | 48.02939 | -68 ft | 21 kts | 96° |
| 2026-04-30 11:44 | 46.28297 | 48.03101 | -68 ft | 16 kts | 136° |
| 2026-04-30 11:44 | 46.28195 | 48.03133 | -67 ft | 15 kts | 187° |
| 2026-04-30 11:44 | 46.28126 | 48.03066 | -66 ft | 10 kts | 261° |
| 2026-04-30 11:44 | 46.28127 | 48.03036 | -69 ft | 0 kts | 274° |
| 2026-04-30 11:45 | 46.28161 | 48.02611 | -71 ft | 83 kts | 277° |
| 2026-04-30 11:46 | 46.28258 | 48.01432 | -74 ft | 149 kts | 277° |
| 2026-04-30 11:46 | 46.28379 | 47.99702 | 43 ft | 190 kts | 275° |
| 2026-04-30 11:46 | 46.28512 | 47.97760 | 600 ft | 196 kts | 276° |
| 2026-04-30 11:46 | 46.28638 | 47.95818 | 1142 ft | 193 kts | 276° |
| 2026-04-30 11:47 | 46.28587 | 47.93871 | 1474 ft | 196 kts | 249° |
| 2026-04-30 11:47 | 46.27671 | 47.92482 | 1744 ft | 197 kts | 201° |
| 2026-04-30 11:47 | 46.26364 | 47.92520 | 1989 ft | 190 kts | 152° |
| 2026-04-30 11:47 | 46.25407 | 47.93781 | 2236 ft | 188 kts | 119° |
| 2026-04-30 11:48 | 46.25057 | 47.95577 | 2498 ft | 187 kts | 96° |
| 2026-04-30 11:48 | 46.24896 | 47.97490 | 2752 ft | 200 kts | 96° |
| 2026-04-30 11:48 | 46.24719 | 47.99560 | 3006 ft | 212 kts | 96° |
| 2026-04-30 11:48 | 46.24529 | 48.01728 | 3265 ft | 228 kts | 97° |
| 2026-04-30 11:49 | 46.24318 | 48.04127 | 3618 ft | 251 kts | 97° |
| 2026-04-30 11:49 | 46.24087 | 48.06697 | 4077 ft | 262 kts | 97° |
| 2026-04-30 11:49 | 46.23844 | 48.09320 | 4555 ft | 265 kts | 97° |
| 2026-04-30 11:49 | 46.23595 | 48.11965 | 5025 ft | 267 kts | 97° |
| 2026-04-30 11:50 | 46.23343 | 48.14624 | 5484 ft | 269 kts | 97° |
| 2026-04-30 11:50 | 46.23090 | 48.17310 | 5949 ft | 270 kts | 97° |
| 2026-04-30 11:50 | 46.22838 | 48.20009 | 6420 ft | 272 kts | 97° |
| 2026-04-30 11:50 | 46.22583 | 48.22725 | 6862 ft | 275 kts | 97° |
| 2026-04-30 11:51 | 46.22321 | 48.25478 | 7309 ft | 278 kts | 98° |
| 2026-04-30 11:51 | 46.22056 | 48.28262 | 7764 ft | 282 kts | 98° |
| 2026-04-30 11:51 | 46.21789 | 48.31071 | 8223 ft | 284 kts | 98° |
| 2026-04-30 11:51 | 46.21518 | 48.33910 | 8687 ft | 287 kts | 98° |
| 2026-04-30 11:52 | 46.21245 | 48.36776 | 9157 ft | 290 kts | 98° |
| 2026-04-30 11:52 | 46.20971 | 48.39680 | 9636 ft | 293 kts | 98° |
| 2026-04-30 11:52 | 46.20694 | 48.42610 | 10109 ft | 296 kts | 99° |
| 2026-04-30 11:52 | 46.20410 | 48.45568 | 10540 ft | 299 kts | 99° |
| 2026-04-30 11:53 | 46.20121 | 48.48548 | 10985 ft | 301 kts | 99° |
| 2026-04-30 11:53 | 46.19831 | 48.51516 | 11428 ft | 304 kts | 99° |
| 2026-04-30 11:53 | 46.19503 | 48.54572 | 11889 ft | 305 kts | 104° |
| 2026-04-30 11:53 | 46.18861 | 48.57490 | 12376 ft | 305 kts | 116° |
| 2026-04-30 11:54 | 46.17862 | 48.60151 | 12924 ft | 306 kts | 127° |
| 2026-04-30 11:54 | 46.16525 | 48.62533 | 13468 ft | 305 kts | 138° |
| 2026-04-30 11:54 | 46.14914 | 48.64509 | 13995 ft | 304 kts | 147° |
| 2026-04-30 11:54 | 46.13207 | 48.66341 | 14479 ft | 307 kts | 147° |
| 2026-04-30 11:55 | 46.11490 | 48.68196 | 14968 ft | 310 kts | 147° |
| 2026-04-30 11:55 | 46.09756 | 48.70069 | 15461 ft | 313 kts | 147° |
| 2026-04-30 11:55 | 46.08001 | 48.71962 | 15975 ft | 316 kts | 147° |
| 2026-04-30 11:55 | 46.06230 | 48.73871 | 16484 ft | 321 kts | 147° |
| 2026-04-30 11:56 | 46.04428 | 48.75810 | 17020 ft | 325 kts | 148° |
| 2026-04-30 11:56 | 46.02602 | 48.77772 | 17555 ft | 330 kts | 148° |
| 2026-04-30 11:56 | 46.00754 | 48.79760 | 18094 ft | 333 kts | 148° |
| 2026-04-30 11:56 | 45.98888 | 48.81769 | 18614 ft | 336 kts | 148° |
| 2026-04-30 11:57 | 45.97008 | 48.83792 | 19087 ft | 339 kts | 148° |
| 2026-04-30 11:57 | 45.95113 | 48.85824 | 19582 ft | 341 kts | 148° |
| 2026-04-30 11:57 | 45.93205 | 48.87863 | 20074 ft | 343 kts | 148° |
| 2026-04-30 11:57 | 45.91285 | 48.89910 | 20580 ft | 344 kts | 149° |
| 2026-04-30 11:58 | 45.89359 | 48.91963 | 21094 ft | 345 kts | 149° |
| 2026-04-30 11:58 | 45.87431 | 48.94023 | 21616 ft | 346 kts | 149° |
| 2026-04-30 11:58 | 45.85509 | 48.96108 | 22152 ft | 347 kts | 148° |
| 2026-04-30 11:58 | 45.83609 | 48.98270 | 22507 ft | 353 kts | 147° |
| 2026-04-30 11:59 | 45.81678 | 49.00520 | 22786 ft | 361 kts | 146° |
| 2026-04-30 11:59 | 45.79715 | 49.02830 | 23063 ft | 369 kts | 146° |
| 2026-04-30 11:59 | 45.77712 | 49.05184 | 23341 ft | 376 kts | 146° |
| 2026-04-30 11:59 | 45.75669 | 49.07573 | 23627 ft | 383 kts | 146° |
| 2026-04-30 12:00 | 45.73583 | 49.09997 | 23866 ft | 389 kts | 146° |
| 2026-04-30 12:00 | 45.71458 | 49.12457 | 24100 ft | 396 kts | 146° |
| 2026-04-30 12:00 | 45.69303 | 49.14945 | 24337 ft | 401 kts | 146° |
| 2026-04-30 12:00 | 45.67854 | 49.16612 | 24496 ft | 405 kts | 146° |
| 2026-04-30 12:01 | 45.65643 | 49.19153 | 24738 ft | 410 kts | 146° |
| 2026-04-30 12:01 | 45.63414 | 49.21715 | 24992 ft | 413 kts | 146° |
| 2026-04-30 12:01 | 45.61169 | 49.24294 | 25226 ft | 415 kts | 146° |
| 2026-04-30 12:01 | 45.58917 | 49.26878 | 25463 ft | 416 kts | 146° |
| 2026-04-30 12:02 | 45.56657 | 49.29468 | 25715 ft | 418 kts | 146° |
| 2026-04-30 12:02 | 45.54384 | 49.32073 | 25968 ft | 420 kts | 146° |
| 2026-04-30 12:02 | 45.52104 | 49.34689 | 26216 ft | 421 kts | 146° |
| 2026-04-30 12:02 | 45.49816 | 49.37309 | 26466 ft | 423 kts | 146° |
| 2026-04-30 12:03 | 45.47514 | 49.39932 | 26725 ft | 425 kts | 146° |
| 2026-04-30 12:03 | 45.42861 | 49.45173 | 27234 ft | 426 kts | 149° |
| 2026-04-30 12:03 | 45.40333 | 49.47330 | 27500 ft | 422 kts | 159° |
| 2026-04-30 12:04 | 45.37651 | 49.48853 | 27763 ft | 419 kts | 168° |
| 2026-04-30 12:04 | 45.34790 | 49.49770 | 28033 ft | 415 kts | 177° |
| 2026-04-30 12:04 | 45.31961 | 49.50023 | 28301 ft | 412 kts | 185° |
| 2026-04-30 12:04 | 45.29091 | 49.50001 | 28568 ft | 414 kts | 185° |
| 2026-04-30 12:05 | 45.26203 | 49.49995 | 28850 ft | 416 kts | 185° |
| 2026-04-30 12:05 | 45.23303 | 49.49993 | 29122 ft | 418 kts | 185° |
| 2026-04-30 12:05 | 45.20383 | 49.49994 | 29413 ft | 420 kts | 185° |
| 2026-04-30 12:05 | 45.17452 | 49.49998 | 29691 ft | 422 kts | 184° |
| 2026-04-30 12:06 | 45.14510 | 49.50001 | 29981 ft | 424 kts | 184° |
| 2026-04-30 12:06 | 45.11552 | 49.50001 | 30115 ft | 425 kts | 185° |
| 2026-04-30 12:06 | 45.08589 | 49.50001 | 30128 ft | 426 kts | 185° |
| 2026-04-30 12:07 | 45.02661 | 49.50000 | 30132 ft | 426 kts | 184° |
| 2026-04-30 12:07 | 44.96724 | 49.50007 | 30130 ft | 427 kts | 185° |
| 2026-04-30 12:08 | 44.90787 | 49.50009 | 30133 ft | 427 kts | 185° |
| 2026-04-30 12:08 | 44.84840 | 49.50003 | 30132 ft | 427 kts | 185° |
| 2026-04-30 12:09 | 44.78893 | 49.50000 | 30126 ft | 427 kts | 185° |
| 2026-04-30 12:09 | 44.72940 | 49.50002 | 30119 ft | 428 kts | 184° |
| 2026-04-30 12:10 | 44.67026 | 49.50010 | 30115 ft | 428 kts | 184° |
| 2026-04-30 12:10 | 44.61065 | 49.50007 | 30114 ft | 428 kts | 185° |
| 2026-04-30 12:11 | 44.55103 | 49.50002 | 30120 ft | 429 kts | 184° |
| 2026-04-30 12:11 | 44.49128 | 49.50003 | 30121 ft | 429 kts | 184° |
| 2026-04-30 12:12 | 44.43151 | 49.50006 | 30124 ft | 430 kts | 184° |
| 2026-04-30 12:12 | 44.37168 | 49.50008 | 30117 ft | 430 kts | 185° |
| 2026-04-30 12:13 | 44.31184 | 49.50006 | 30116 ft | 430 kts | 184° |
| 2026-04-30 12:13 | 44.25195 | 49.50004 | 30117 ft | 431 kts | 185° |
| 2026-04-30 12:14 | 44.19203 | 49.50000 | 30117 ft | 431 kts | 185° |
| 2026-04-30 12:14 | 44.13208 | 49.49997 | 30115 ft | 431 kts | 184° |
| 2026-04-30 12:15 | 44.07210 | 49.50000 | 30119 ft | 431 kts | 184° |
| 2026-04-30 12:15 | 44.01205 | 49.49995 | 30120 ft | 431 kts | 184° |
| 2026-04-30 12:16 | 43.95410 | 49.48786 | 30111 ft | 414 kts | 213° |
| 2026-04-30 12:16 | 43.93215 | 49.46342 | 30111 ft | 403 kts | 233° |
| 2026-04-30 12:16 | 43.91555 | 49.43235 | 30110 ft | 400 kts | 238° |
| 2026-04-30 12:17 | 43.86806 | 49.33658 | 30109 ft | 403 kts | 238° |
| 2026-04-30 12:17 | 43.85378 | 49.30345 | 30108 ft | 400 kts | 249° |
| 2026-04-30 12:17 | 43.84546 | 49.26702 | 30113 ft | 396 kts | 261° |
| 2026-04-30 12:18 | 43.83637 | 49.19164 | 30112 ft | 397 kts | 262° |
| 2026-04-30 12:18 | 43.82733 | 49.11619 | 30125 ft | 397 kts | 262° |
| 2026-04-30 12:19 | 43.81822 | 49.04126 | 30121 ft | 397 kts | 262° |
| 2026-04-30 12:19 | 43.80887 | 48.96589 | 30125 ft | 397 kts | 262° |
| 2026-04-30 12:20 | 43.79950 | 48.89053 | 30143 ft | 397 kts | 262° |
| 2026-04-30 12:20 | 43.79021 | 48.81538 | 30138 ft | 396 kts | 262° |
| 2026-04-30 12:21 | 43.78086 | 48.74019 | 30138 ft | 396 kts | 262° |
| 2026-04-30 12:21 | 43.77145 | 48.66513 | 30143 ft | 395 kts | 262° |
| 2026-04-30 12:22 | 43.76192 | 48.59028 | 30143 ft | 395 kts | 262° |
| 2026-04-30 12:22 | 43.75244 | 48.51546 | 30140 ft | 395 kts | 262° |
| 2026-04-30 12:23 | 43.74293 | 48.44079 | 30146 ft | 394 kts | 262° |
| 2026-04-30 12:23 | 43.73338 | 48.36620 | 30145 ft | 394 kts | 262° |
| 2026-04-30 12:24 | 43.72374 | 48.29173 | 30142 ft | 394 kts | 262° |
| 2026-04-30 12:24 | 43.71403 | 48.21721 | 30140 ft | 394 kts | 262° |
| 2026-04-30 12:25 | 43.70428 | 48.14284 | 30142 ft | 393 kts | 262° |
| 2026-04-30 12:25 | 43.69452 | 48.06858 | 30140 ft | 392 kts | 263° |
| 2026-04-30 12:26 | 43.68477 | 47.99451 | 30141 ft | 392 kts | 263° |
| 2026-04-30 12:26 | 43.67500 | 47.92045 | 30142 ft | 391 kts | 263° |
| 2026-04-30 12:27 | 43.66514 | 47.84654 | 30144 ft | 391 kts | 263° |
| 2026-04-30 12:27 | 43.65529 | 47.77276 | 30144 ft | 390 kts | 263° |
| 2026-04-30 12:28 | 43.64540 | 47.69907 | 30138 ft | 390 kts | 263° |
| 2026-04-30 12:28 | 43.63544 | 47.62559 | 30141 ft | 389 kts | 262° |
| 2026-04-30 12:29 | 43.62551 | 47.55272 | 30138 ft | 388 kts | 262° |
| 2026-04-30 12:29 | 43.61586 | 47.47947 | 30133 ft | 387 kts | 264° |
| 2026-04-30 12:30 | 43.60941 | 47.40592 | 30133 ft | 385 kts | 267° |
| 2026-04-30 12:30 | 43.60420 | 47.33247 | 30130 ft | 385 kts | 267° |
| 2026-04-30 12:31 | 43.59857 | 47.25904 | 30130 ft | 384 kts | 266° |
| 2026-04-30 12:31 | 43.59245 | 47.18579 | 30125 ft | 384 kts | 266° |
| 2026-04-30 12:32 | 43.58612 | 47.11272 | 30125 ft | 384 kts | 266° |
| 2026-04-30 12:32 | 43.57977 | 47.03969 | 30121 ft | 383 kts | 266° |
| 2026-04-30 12:33 | 43.57352 | 46.96684 | 30119 ft | 382 kts | 266° |
| 2026-04-30 12:33 | 43.56724 | 46.89402 | 30114 ft | 382 kts | 266° |
| 2026-04-30 12:34 | 43.56096 | 46.82135 | 30111 ft | 381 kts | 266° |
| 2026-04-30 12:34 | 43.55459 | 46.74876 | 30108 ft | 381 kts | 265° |
| 2026-04-30 12:35 | 43.54810 | 46.67625 | 30111 ft | 381 kts | 265° |
| 2026-04-30 12:35 | 43.54167 | 46.60386 | 30109 ft | 380 kts | 266° |
| 2026-04-30 12:36 | 43.53526 | 46.53201 | 30108 ft | 380 kts | 265° |
| 2026-04-30 12:36 | 43.52871 | 46.45984 | 30112 ft | 379 kts | 265° |
| 2026-04-30 12:37 | 43.52205 | 46.38791 | 30107 ft | 378 kts | 265° |
| 2026-04-30 12:37 | 43.51544 | 46.31599 | 30101 ft | 378 kts | 265° |
| 2026-04-30 12:38 | 43.50885 | 46.24415 | 30100 ft | 378 kts | 265° |
| 2026-04-30 12:38 | 43.50221 | 46.17238 | 30099 ft | 378 kts | 265° |
| 2026-04-30 12:39 | 43.49549 | 46.10068 | 30096 ft | 378 kts | 265° |
| 2026-04-30 12:39 | 43.49092 | 46.02893 | 30096 ft | 375 kts | 275° |
| 2026-04-30 12:40 | 43.49673 | 45.95768 | 30105 ft | 374 kts | 277° |
| 2026-04-30 12:40 | 43.50267 | 45.88650 | 30105 ft | 374 kts | 277° |
| 2026-04-30 12:41 | 43.50844 | 45.81536 | 30106 ft | 374 kts | 277° |
| 2026-04-30 12:41 | 43.51422 | 45.74420 | 30108 ft | 373 kts | 277° |
| 2026-04-30 12:42 | 43.51998 | 45.67314 | 30107 ft | 373 kts | 277° |
| 2026-04-30 12:42 | 43.52578 | 45.60212 | 30105 ft | 373 kts | 277° |
| 2026-04-30 12:43 | 43.53150 | 45.53113 | 30101 ft | 373 kts | 277° |
| 2026-04-30 12:43 | 43.53713 | 45.46016 | 30104 ft | 372 kts | 276° |
| 2026-04-30 12:44 | 43.54270 | 45.38918 | 30103 ft | 372 kts | 276° |
| 2026-04-30 12:44 | 43.54822 | 45.31821 | 30099 ft | 372 kts | 276° |
| 2026-04-30 12:45 | 43.55374 | 45.24724 | 30103 ft | 372 kts | 276° |
| 2026-04-30 12:45 | 43.55919 | 45.17630 | 30101 ft | 372 kts | 276° |
| 2026-04-30 12:46 | 43.56370 | 45.11735 | 30106 ft | 372 kts | 276° |
| 2026-04-30 12:46 | 43.56904 | 45.04642 | 30104 ft | 372 kts | 276° |
| 2026-04-30 12:47 | 43.57437 | 44.97548 | 30101 ft | 372 kts | 276° |
| 2026-04-30 12:47 | 43.57965 | 44.90462 | 30107 ft | 372 kts | 276° |
| 2026-04-30 12:48 | 43.58487 | 44.83366 | 30112 ft | 372 kts | 276° |
| 2026-04-30 12:48 | 43.59005 | 44.76279 | 30110 ft | 371 kts | 276° |
| 2026-04-30 12:49 | 43.59521 | 44.69190 | 30114 ft | 371 kts | 276° |
| 2026-04-30 12:49 | 43.60032 | 44.62100 | 30112 ft | 371 kts | 275° |
| 2026-04-30 12:50 | 43.60535 | 44.55014 | 30109 ft | 371 kts | 276° |
| 2026-04-30 12:50 | 43.61032 | 44.47981 | 30115 ft | 371 kts | 275° |
| 2026-04-30 12:51 | 43.61524 | 44.40899 | 30114 ft | 371 kts | 275° |
| 2026-04-30 12:51 | 43.62022 | 44.33821 | 30109 ft | 370 kts | 275° |
| 2026-04-30 12:52 | 43.62509 | 44.26756 | 30102 ft | 370 kts | 275° |
| 2026-04-30 12:52 | 43.62987 | 44.19687 | 30098 ft | 370 kts | 275° |
| 2026-04-30 12:53 | 43.63455 | 44.12626 | 30099 ft | 369 kts | 274° |
| 2026-04-30 12:53 | 43.63733 | 44.05531 | 30090 ft | 369 kts | 272° |
| 2026-04-30 12:54 | 43.63820 | 44.01994 | 29827 ft | 369 kts | 272° |
| 2026-04-30 12:54 | 43.63900 | 43.98444 | 29592 ft | 358 kts | 272° |
| 2026-04-30 12:54 | 43.63981 | 43.95101 | 29378 ft | 347 kts | 272° |
| 2026-04-30 12:54 | 43.64068 | 43.91797 | 29255 ft | 334 kts | 272° |
| 2026-04-30 12:55 | 43.64157 | 43.88642 | 29142 ft | 326 kts | 272° |
| 2026-04-30 12:55 | 43.64246 | 43.85567 | 29030 ft | 324 kts | 272° |
| 2026-04-30 12:55 | 43.64335 | 43.82429 | 28919 ft | 323 kts | 272° |
| 2026-04-30 12:55 | 43.64421 | 43.79377 | 28807 ft | 322 kts | 272° |
| 2026-04-30 12:56 | 43.64510 | 43.76288 | 28695 ft | 322 kts | 272° |
| 2026-04-30 12:56 | 43.64595 | 43.73208 | 28586 ft | 321 kts | 272° |
| 2026-04-30 12:56 | 43.64677 | 43.70130 | 28479 ft | 321 kts | 272° |
| 2026-04-30 12:56 | 43.64758 | 43.67049 | 28369 ft | 320 kts | 271° |
| 2026-04-30 12:57 | 43.64837 | 43.63976 | 28258 ft | 320 kts | 271° |
| 2026-04-30 12:57 | 43.64918 | 43.60908 | 28151 ft | 319 kts | 271° |
| 2026-04-30 12:57 | 43.65001 | 43.57849 | 28044 ft | 319 kts | 271° |
| 2026-04-30 12:57 | 43.65083 | 43.54791 | 27936 ft | 319 kts | 271° |
| 2026-04-30 12:58 | 43.65162 | 43.51732 | 27831 ft | 318 kts | 271° |
| 2026-04-30 12:58 | 43.65240 | 43.48674 | 27722 ft | 318 kts | 271° |
| 2026-04-30 12:58 | 43.65318 | 43.45628 | 27621 ft | 317 kts | 271° |
| 2026-04-30 12:58 | 43.65394 | 43.42582 | 27518 ft | 317 kts | 271° |
| 2026-04-30 12:59 | 43.65468 | 43.39543 | 27411 ft | 317 kts | 271° |
| 2026-04-30 12:59 | 43.65540 | 43.36516 | 27310 ft | 316 kts | 271° |
| 2026-04-30 12:59 | 43.65612 | 43.33477 | 27216 ft | 316 kts | 271° |
| 2026-04-30 12:59 | 43.65685 | 43.30447 | 27100 ft | 316 kts | 271° |
| 2026-04-30 13:00 | 43.65758 | 43.27420 | 26994 ft | 315 kts | 271° |
| 2026-04-30 13:00 | 43.65830 | 43.24398 | 26889 ft | 315 kts | 271° |
| 2026-04-30 13:00 | 43.65900 | 43.21376 | 26789 ft | 314 kts | 271° |
| 2026-04-30 13:00 | 43.65968 | 43.18364 | 26687 ft | 314 kts | 271° |
| 2026-04-30 13:01 | 43.66038 | 43.15357 | 26587 ft | 313 kts | 271° |
| 2026-04-30 13:01 | 43.66106 | 43.12344 | 26492 ft | 313 kts | 271° |
| 2026-04-30 13:01 | 43.66172 | 43.09341 | 26389 ft | 313 kts | 271° |
| 2026-04-30 13:01 | 43.66236 | 43.06332 | 26287 ft | 313 kts | 271° |
| 2026-04-30 13:02 | 43.66300 | 43.03329 | 26189 ft | 313 kts | 271° |
| 2026-04-30 13:02 | 43.66363 | 43.00329 | 26085 ft | 312 kts | 271° |
| 2026-04-30 13:02 | 43.66425 | 42.97333 | 25985 ft | 312 kts | 271° |
| 2026-04-30 13:02 | 43.66487 | 42.94341 | 25882 ft | 312 kts | 270° |
| 2026-04-30 13:03 | 43.66548 | 42.91352 | 25784 ft | 311 kts | 270° |
| 2026-04-30 13:03 | 43.66609 | 42.88365 | 25685 ft | 311 kts | 270° |
| 2026-04-30 13:03 | 43.66668 | 42.85377 | 25586 ft | 311 kts | 270° |
| 2026-04-30 13:03 | 43.66726 | 42.82399 | 25484 ft | 310 kts | 270° |
| 2026-04-30 13:04 | 43.66783 | 42.79417 | 25391 ft | 310 kts | 270° |
| 2026-04-30 13:04 | 43.66840 | 42.76480 | 25286 ft | 310 kts | 270° |
| 2026-04-30 13:04 | 43.66897 | 42.73469 | 25196 ft | 309 kts | 270° |
| 2026-04-30 13:04 | 43.66953 | 42.70539 | 25095 ft | 309 kts | 270° |
| 2026-04-30 13:05 | 43.67011 | 42.67575 | 25002 ft | 309 kts | 270° |
| 2026-04-30 13:05 | 43.67067 | 42.64611 | 24906 ft | 308 kts | 270° |
| 2026-04-30 13:05 | 43.67122 | 42.61644 | 24811 ft | 308 kts | 270° |
| 2026-04-30 13:06 | 43.67224 | 42.55730 | 24611 ft | 308 kts | 270° |
| 2026-04-30 13:06 | 43.67273 | 42.52776 | 24518 ft | 308 kts | 270° |
| 2026-04-30 13:06 | 43.67323 | 42.49825 | 24422 ft | 307 kts | 270° |
| 2026-04-30 13:06 | 43.67371 | 42.46878 | 24327 ft | 307 kts | 270° |
| 2026-04-30 13:07 | 43.67418 | 42.43932 | 24236 ft | 307 kts | 270° |
| 2026-04-30 13:07 | 43.67463 | 42.40988 | 24140 ft | 307 kts | 269° |
| 2026-04-30 13:07 | 43.67508 | 42.38050 | 24043 ft | 306 kts | 269° |
| 2026-04-30 13:07 | 43.67553 | 42.35109 | 23946 ft | 306 kts | 269° |
| 2026-04-30 13:08 | 43.67599 | 42.32171 | 23851 ft | 306 kts | 269° |
| 2026-04-30 13:08 | 43.67646 | 42.29233 | 23764 ft | 306 kts | 269° |
| 2026-04-30 13:08 | 43.67691 | 42.26297 | 23665 ft | 305 kts | 269° |
| 2026-04-30 13:08 | 43.67734 | 42.23367 | 23562 ft | 305 kts | 269° |
| 2026-04-30 13:09 | 43.67777 | 42.20435 | 23444 ft | 305 kts | 269° |
| 2026-04-30 13:09 | 43.67818 | 42.17509 | 23335 ft | 304 kts | 269° |
| 2026-04-30 13:09 | 43.67857 | 42.14586 | 23222 ft | 304 kts | 269° |
| 2026-04-30 13:09 | 43.67894 | 42.11667 | 23111 ft | 304 kts | 269° |
| 2026-04-30 13:10 | 43.67931 | 42.08749 | 22995 ft | 304 kts | 269° |
| 2026-04-30 13:10 | 43.67968 | 42.05837 | 22882 ft | 303 kts | 269° |
| 2026-04-30 13:10 | 43.68004 | 42.02930 | 22777 ft | 303 kts | 269° |
| 2026-04-30 13:10 | 43.68041 | 42.00026 | 22657 ft | 302 kts | 269° |
| 2026-04-30 13:11 | 43.68077 | 41.97128 | 22554 ft | 302 kts | 269° |
| 2026-04-30 13:11 | 43.68114 | 41.94238 | 22440 ft | 302 kts | 269° |
| 2026-04-30 13:11 | 43.68150 | 41.91335 | 22329 ft | 301 kts | 269° |
| 2026-04-30 13:11 | 43.68184 | 41.88438 | 22216 ft | 301 kts | 269° |
| 2026-04-30 13:12 | 43.68216 | 41.85548 | 22114 ft | 301 kts | 269° |
| 2026-04-30 13:12 | 43.68248 | 41.82666 | 22004 ft | 300 kts | 269° |
| 2026-04-30 13:12 | 43.68278 | 41.79790 | 21900 ft | 300 kts | 269° |
| 2026-04-30 13:13 | 43.68335 | 41.74039 | 21685 ft | 299 kts | 270° |
| 2026-04-30 13:13 | 43.68364 | 41.71163 | 21576 ft | 299 kts | 270° |
| 2026-04-30 13:13 | 43.68424 | 41.65417 | 21366 ft | 298 kts | 269° |
| 2026-04-30 13:14 | 43.68453 | 41.62553 | 21263 ft | 298 kts | 270° |
| 2026-04-30 13:14 | 43.68479 | 41.59694 | 21157 ft | 297 kts | 270° |
| 2026-04-30 13:14 | 43.68525 | 41.54058 | 20951 ft | 296 kts | 270° |
| 2026-04-30 13:15 | 43.68547 | 41.51194 | 20845 ft | 297 kts | 269° |
| 2026-04-30 13:15 | 43.68596 | 41.45499 | 20641 ft | 296 kts | 270° |
| 2026-04-30 13:15 | 43.68619 | 41.42657 | 20540 ft | 296 kts | 270° |
| 2026-04-30 13:16 | 43.68639 | 41.39819 | 20434 ft | 295 kts | 269° |
| 2026-04-30 13:16 | 43.68657 | 41.36979 | 20330 ft | 295 kts | 270° |
| 2026-04-30 13:16 | 43.68673 | 41.34143 | 20209 ft | 295 kts | 270° |
| 2026-04-30 13:17 | 43.68705 | 41.28480 | 20115 ft | 294 kts | 270° |
| 2026-04-30 13:17 | 43.68719 | 41.25649 | 20115 ft | 295 kts | 270° |
| 2026-04-30 13:17 | 43.68746 | 41.20941 | 20117 ft | 295 kts | 270° |
| 2026-04-30 13:18 | 43.68766 | 41.17150 | 20119 ft | 295 kts | 269° |
| 2026-04-30 13:18 | 43.68793 | 41.11489 | 20117 ft | 295 kts | 270° |
| 2026-04-30 13:18 | 43.68809 | 41.08658 | 20115 ft | 295 kts | 270° |
| 2026-04-30 13:19 | 43.68822 | 41.05825 | 20121 ft | 295 kts | 270° |
| 2026-04-30 13:19 | 43.68836 | 41.02992 | 20125 ft | 295 kts | 270° |
| 2026-04-30 13:19 | 43.68848 | 41.00165 | 20115 ft | 294 kts | 270° |
| 2026-04-30 13:19 | 43.68859 | 40.97342 | 20121 ft | 294 kts | 270° |